Summerland Key, FL

4:07 AM EDT on September 23, 2014 (GMT -0400)
Breezeswept Estates - Bird Lake - Ramrod | Change Station
CLOSE
Current Station
Personal Weather Station
Location: Ramrod Key, FL
Elevation: 25 ft
Nearby Weather Stations

Elev 25 ft 24.65 °N, 81.41 °W | Updated 9 seconds ago

Clear
Clear
80.6 °F
Feels Like 86 °F
N
5.9
Wind Variable Wind from East
Gusts 8.3 mph

Today
High -- | Low -- °F
--% Chance of Precip.
Yesterday
High -- | Low -- °F
Precip. -- in
7:14 AM 7:20 PM
Waning Crescent, 1% visible
Pressure 29.93 in
Visibility 10.0 miles
Clouds Clear
Heat Index 86 °F
Dew Point 75 °F
Humidity 83%
Rainfall 0.00 in
Snow Depth Not available.
UV 0 out of 12
Pollen 2.80 out of 12
Air Quality Not available.
Flu Activity Not available.
METAR KNQX 230753Z AUTO 05005KT 10SM TS CLR 27/24 A2994 RMK AO2 TSB53 SLP135 T02720244 $

More Conditions Fewer Conditions

Pressure 29.93 in
Visibility 10.0 miles
Clouds Clear
Heat Index 86 °F
Dew Point 75 °F
Humidity 83%
Rainfall 0.00 in
Snow Depth Not available.
UV 0 out of 12
Pollen 2.80 out of 12
Air Quality Not available.
Flu Activity Not available.
METAR KNQX 230753Z AUTO 05005KT 10SM TS CLR 27/24 A2994 RMK AO2 TSB53 SLP135 T02720244 $

More Conditions Fewer Conditions

Nowcast | as of 3:02 am EDT on September 23, 2014

Through 430 am...showers and thunderstorms will increase in coverage across the eastern Florida Straits...spreading west- northwest into Florida Bay and the Upper Keys. Storm motion will be as fast as 15 knots. Mariners and boaters should prepare for gusty winds...occasional spells of frequent lightning...and periods of poor visibility.

×

10-Day Weather Forecast

Almanac

Astronomy

Sep. 23, 2014 Rise Set
Actual Time 7:14 AM EDT 7:20 PM EDT
Civil Twilight 6:51 AM EDT 7:43 PM EDT
Nautical Twilight 6:25 AM EDT 8:10 PM EDT
Astronomical Twilight 5:58 AM EDT 8:36 PM EDT
Moon 6:39 AM EDT 7:00 PM EDT
Length of Visible Light 12h 51m
Length of Day
12h 06m
Tomorrow will be 1m 26s shorter.
Waning Crescent, 1% of the Moon is Illuminated
Today
Waning Crescent
Sep 24
New
Oct 1
First Quarter
Oct 8
Full
Oct 15
Last Quarter

Today's Extremes

State Highs State Lows

Community

WunderPhotos

Upload Photos

1,755,608 photos uploaded!

Nearby

Snow Depth

Station Depth Elevation
No new snow has been reported.

Earthquake Activity

City Distance Mag. Time & Date
No recent earthquake activity has been reported nearby.
Minimum magnitude displayed is 2.5.

Coastal Water Temperatures

Place Temperature
No Stations Reporting

Nearby Weather Stations